Time;durP1;ratioP1;P1;durP2;ratioP2;P2;SDS_P1;SDS_P2;PMS_P1;PMS_P2;Temp;Humidity;BMP_temperature;BMP_pressure;BME280_temperature;BME280_humidity;BME280_pressure;Samples;Min_cycle;Max_cycle;Signal;HPM_P1;HPM_P2
2023/08/21 00:00:16;;;;;;;8.00;2.25;;;;;;;;;;4950477;28;98480;-81
2023/08/21 00:02:43;;;;;;;7.05;2.15;;;;;;;;;;4951864;28;98903;-80
2023/08/21 00:05:09;;;;;;;9.30;2.63;;;;;;;;;;4935465;28;101003;-80
2023/08/21 00:07:36;;;;;;;7.00;2.08;;;;;;;;;;4950186;28;98514;-81
2023/08/21 00:10:03;;;;;;;8.25;2.17;;;;;;;;;;4950423;28;99378;-80
2023/08/21 00:12:29;;;;;;;8.13;2.15;;;;;;;;;;4947573;28;98863;-80
2023/08/21 00:14:56;;;;;;;9.45;2.22;;;;;;;;;;4949219;28;98758;-80
2023/08/21 00:17:22;;;;;;;8.82;2.30;;;;;;;;;;4947017;28;99960;-80
2023/08/21 00:19:49;;;;;;;7.13;2.00;;;;;;;;;;4949500;28;99096;-80
2023/08/21 00:22:15;;;;;;;6.43;1.80;;;;;;;;;;4946616;28;98844;-81
2023/08/21 00:24:42;;;;;;;5.50;1.85;;;;;;;;;;4945915;28;102145;-81
2023/08/21 00:27:09;;;;;;;6.65;1.92;;;;;;;;;;4939203;28;98954;-81
2023/08/21 00:29:36;;;;;;;8.45;1.95;;;;;;;;;;4939097;28;99306;-80
2023/08/21 00:32:02;;;;;;;5.28;1.80;;;;;;;;;;4945678;28;101971;-80
2023/08/21 00:34:29;;;;;;;7.65;2.20;;;;;;;;;;4947121;28;97895;-80
2023/08/21 00:36:55;;;;;;;6.57;2.10;;;;;;;;;;4932513;28;98521;-80
2023/08/21 00:39:22;;;;;;;7.63;1.85;;;;;;;;;;4938462;28;99473;-82
2023/08/21 00:41:48;;;;;;;8.43;2.05;;;;;;;;;;4957425;28;99411;-81
2023/08/21 00:44:15;;;;;;;7.88;2.10;;;;;;;;;;4955775;28;99770;-81
2023/08/21 00:46:41;;;;;;;7.40;1.90;;;;;;;;;;4956318;28;98588;-82
2023/08/21 00:49:08;;;;;;;6.63;1.90;;;;;;;;;;4954719;28;100728;-80
2023/08/21 00:51:35;;;;;;;6.35;2.20;;;;;;;;;;4949119;28;100361;-80
2023/08/21 00:54:01;;;;;;;7.00;2.33;;;;;;;;;;4952457;28;98517;-81
2023/08/21 00:56:28;;;;;;;6.47;1.98;;;;;;;;;;4943428;28;98937;-81
2023/08/21 00:58:55;;;;;;;6.35;1.90;;;;;;;;;;4932742;28;100189;-80
2023/08/21 01:01:24;;;;;;;6.78;1.80;;;;;;;;;;4953979;28;98494;-80
2023/08/21 01:03:51;;;;;;;7.15;1.98;;;;;;;;;;4950933;28;99263;-79
2023/08/21 01:06:18;;;;;;;5.85;1.90;;;;;;;;;;4955881;28;99519;-80
2023/08/21 01:08:45;;;;;;;6.93;2.05;;;;;;;;;;4958118;28;99593;-80
2023/08/21 01:11:21;;;;;;;6.50;1.90;;;;;;;;;;4959826;28;99174;-79
2023/08/21 01:13:55;;;;;;;5.32;1.92;;;;;;;;;;4950269;28;98503;-80
2023/08/21 01:16:23;;;;;;;6.72;1.70;;;;;;;;;;4946540;28;98497;-79
2023/08/21 01:18:50;;;;;;;5.55;1.70;;;;;;;;;;4960238;28;98889;-78
2023/08/21 01:21:17;;;;;;;5.78;1.95;;;;;;;;;;4945215;28;98561;-79
2023/08/21 01:23:43;;;;;;;6.20;1.67;;;;;;;;;;4955977;28;98719;-81
2023/08/21 01:26:10;;;;;;;5.07;1.83;;;;;;;;;;4955214;28;99325;-79
2023/08/21 01:28:37;;;;;;;6.05;1.77;;;;;;;;;;4935555;28;101629;-79
2023/08/21 01:31:12;;;;;;;7.13;1.70;;;;;;;;;;4943282;28;99956;-80
2023/08/21 01:33:47;;;;;;;4.38;1.60;;;;;;;;;;4939945;28;99199;-79
2023/08/21 01:36:14;;;;;;;4.82;1.70;;;;;;;;;;4951713;28;99130;-80
2023/08/21 01:38:41;;;;;;;7.03;1.80;;;;;;;;;;4945205;28;99508;-81
2023/08/21 01:41:07;;;;;;;8.75;1.90;;;;;;;;;;4939003;28;98745;-80
2023/08/21 01:43:34;;;;;;;8.00;2.00;;;;;;;;;;4948975;28;98838;-79
2023/08/21 01:46:01;;;;;;;;;;;;;;;;;;4951401;28;100356;-80
2023/08/21 01:48:28;;;;;;;7.72;1.85;;;;;;;;;;4951980;28;97886;-81
2023/08/21 01:50:54;;;;;;;6.10;2.17;;;;;;;;;;4948966;28;99132;-80
2023/08/21 01:53:21;;;;;;;7.00;1.88;;;;;;;;;;4951909;28;98850;-79
2023/08/21 01:55:47;;;;;;;5.25;1.73;;;;;;;;;;4954072;28;99435;-79
2023/08/21 01:58:15;;;;;;;5.75;1.90;;;;;;;;;;4954450;28;102041;-79
2023/08/21 02:00:42;;;;;;;5.18;2.00;;;;;;;;;;4960907;28;98931;-79
2023/08/21 02:03:08;;;;;;;5.85;1.90;;;;;;;;;;4963046;28;98541;-79
2023/08/21 02:05:39;;;;;;;7.13;1.95;;;;;;;;;;4952596;28;100337;-79
2023/08/21 02:08:07;;;;;;;7.10;1.80;;;;;;;;;;4936120;28;98593;-80
2023/08/21 02:10:34;;;;;;;4.80;1.90;;;;;;;;;;4957070;28;98534;-80
2023/08/21 02:13:00;;;;;;;4.20;1.55;;;;;;;;;;4946181;28;97886;-79
2023/08/21 02:15:27;;;;;;;8.38;1.80;;;;;;;;;;4960072;28;100225;-79
2023/08/21 02:17:54;;;;;;;6.15;1.80;;;;;;;;;;4945156;28;98819;-79
2023/08/21 02:20:21;;;;;;;6.25;2.33;;;;;;;;;;4952725;28;99200;-79
2023/08/21 02:22:47;;;;;;;5.75;1.80;;;;;;;;;;4957035;28;99605;-80
2023/08/21 02:25:14;;;;;;;7.00;1.60;;;;;;;;;;4920196;28;103118;-81
2023/08/21 02:27:40;;;;;;;5.80;1.80;;;;;;;;;;4936375;28;98643;-81
2023/08/21 02:30:07;;;;;;;6.30;1.70;;;;;;;;;;4921090;28;101828;-81
2023/08/21 02:32:34;;;;;;;5.20;1.70;;;;;;;;;;4933481;28;98467;-82
2023/08/21 02:35:01;;;;;;;6.93;1.90;;;;;;;;;;4933297;28;98775;-82
2023/08/21 02:37:28;;;;;;;9.10;1.73;;;;;;;;;;4934471;28;98861;-82
2023/08/21 02:39:54;;;;;;;5.35;1.90;;;;;;;;;;4935710;28;98547;-82
2023/08/21 02:42:21;;;;;;;6.03;1.98;;;;;;;;;;4942960;28;102021;-81
2023/08/21 02:44:47;;;;;;;6.32;1.70;;;;;;;;;;4940621;28;101415;-81
2023/08/21 02:47:14;;;;;;;5.78;1.70;;;;;;;;;;4937374;28;98939;-81
2023/08/21 02:49:40;;;;;;;4.53;1.70;;;;;;;;;;4946078;28;98853;-81
2023/08/21 02:52:07;;;;;;;4.78;1.45;;;;;;;;;;4949968;28;100014;-81
2023/08/21 02:54:33;;;;;;;5.30;1.70;;;;;;;;;;4953539;28;99035;-80
2023/08/21 02:57:00;;;;;;;4.18;1.58;;;;;;;;;;4950853;28;100300;-80
2023/08/21 02:59:26;;;;;;;5.05;1.90;;;;;;;;;;4950966;28;98501;-80
2023/08/21 03:01:53;;;;;;;5.97;1.83;;;;;;;;;;4949756;28;100018;-80
2023/08/21 03:04:19;;;;;;;5.55;1.80;;;;;;;;;;4950442;28;100236;-81
2023/08/21 03:06:46;;;;;;;5.50;1.80;;;;;;;;;;4939159;28;98729;-80
2023/08/21 03:09:13;;;;;;;4.40;1.70;;;;;;;;;;4947471;28;99665;-80
2023/08/21 03:11:39;;;;;;;14.57;2.10;;;;;;;;;;4941505;28;99133;-80
2023/08/21 03:14:06;;;;;;;6.35;1.80;;;;;;;;;;4934162;28;98832;-80
2023/08/21 03:16:33;;;;;;;6.93;1.90;;;;;;;;;;4942202;28;99211;-81
2023/08/21 03:19:00;;;;;;;5.20;1.95;;;;;;;;;;4936746;28;99139;-80
2023/08/21 03:21:28;;;;;;;6.28;1.92;;;;;;;;;;4930796;28;101510;-80
2023/08/21 03:23:58;;;;;;;5.63;1.83;;;;;;;;;;4943664;28;102114;-81
2023/08/21 03:26:27;;;;;;;6.32;1.80;;;;;;;;;;4946775;28;97982;-80
2023/08/21 03:28:54;;;;;;;6.18;1.90;;;;;;;;;;4932895;28;98467;-80
2023/08/21 03:31:21;;;;;;;5.40;1.90;;;;;;;;;;4929018;28;102146;-80
2023/08/21 03:33:48;;;;;;;5.20;1.95;;;;;;;;;;4931388;28;99269;-79
2023/08/21 03:36:16;;;;;;;5.07;1.55;;;;;;;;;;4928656;28;101371;-79
2023/08/21 03:38:43;;;;;;;3.65;1.55;;;;;;;;;;4947432;28;98656;-80
2023/08/21 03:41:10;;;;;;;5.18;1.65;;;;;;;;;;4955014;28;101581;-80
2023/08/21 03:43:36;;;;;;;6.55;1.75;;;;;;;;;;4936147;28;102114;-79
2023/08/21 03:46:03;;;;;;;5.30;1.75;;;;;;;;;;4938237;28;98634;-81
2023/08/21 03:48:30;;;;;;;8.85;2.00;;;;;;;;;;4930264;28;101623;-81
2023/08/21 03:50:56;;;;;;;7.18;1.80;;;;;;;;;;4951050;28;98582;-81
2023/08/21 03:53:23;;;;;;;6.78;1.83;;;;;;;;;;4952131;28;98527;-81
2023/08/21 03:55:49;;;;;;;5.20;1.90;;;;;;;;;;4949531;28;99024;-81
2023/08/21 03:58:16;;;;;;;5.88;2.33;;;;;;;;;;4930169;28;99430;-79
2023/08/21 04:00:42;;;;;;;6.30;1.80;;;;;;;;;;4950458;28;100192;-80
2023/08/21 04:03:10;;;;;;;;;;;;;;;;;;4940155;28;101997;-81
2023/08/21 04:05:37;;;;;;;6.03;1.60;;;;;;;;;;4935177;28;98963;-80
2023/08/21 04:08:03;;;;;;;6.88;2.20;;;;;;;;;;4949629;28;99140;-79
2023/08/21 04:10:30;;;;;;;7.63;2.15;;;;;;;;;;4948592;28;102515;-81
2023/08/21 04:12:56;;;;;;;7.40;2.30;;;;;;;;;;4950993;28;98955;-80
2023/08/21 04:15:25;;;;;;;6.20;2.33;;;;;;;;;;4927399;28;102359;-80
2023/08/21 04:17:52;;;;;;;6.82;2.15;;;;;;;;;;4953820;28;102183;-81
2023/08/21 04:20:20;;;;;;;5.43;2.10;;;;;;;;;;4939589;28;99433;-81
2023/08/21 04:22:46;;;;;;;;;;;;;;;;;;4947201;28;99834;-81
2023/08/21 04:25:13;;;;;;;6.78;2.15;;;;;;;;;;4944505;28;113726;-81
2023/08/21 04:27:41;;;;;;;6.32;2.20;;;;;;;;;;4956337;28;100311;-80
2023/08/21 04:30:08;;;;;;;8.00;2.30;;;;;;;;;;4956141;28;98690;-81
2023/08/21 04:32:35;;;;;;;;;;;;;;;;;;4939290;28;98455;-81
2023/08/21 04:35:01;;;;;;;6.80;2.00;;;;;;;;;;4964734;28;104957;-81
2023/08/21 04:37:28;;;;;;;6.45;2.30;;;;;;;;;;4942379;28;102504;-81
2023/08/21 04:39:55;;;;;;;4.53;1.90;;;;;;;;;;4937611;28;98089;-82
2023/08/21 04:42:21;;;;;;;5.70;2.00;;;;;;;;;;4948559;28;99137;-81
2023/08/21 04:44:48;;;;;;;5.05;1.90;;;;;;;;;;4934106;28;98550;-81
2023/08/21 04:47:23;;;;;;;6.65;1.85;;;;;;;;;;4949041;28;100771;-80
2023/08/21 04:49:53;;;;;;;7.22;1.90;;;;;;;;;;4935623;28;101206;-80
2023/08/21 04:52:21;;;;;;;5.72;2.00;;;;;;;;;;4948759;28;98638;-81
2023/08/21 04:54:47;;;;;;;;;;;;;;;;;;4937600;28;99980;-81
2023/08/21 04:57:14;;;;;;;5.65;1.90;;;;;;;;;;4943342;28;101870;-80
2023/08/21 04:59:40;;;;;;;7.28;1.73;;;;;;;;;;4949110;28;99023;-80
2023/08/21 05:02:07;;;;;;;5.85;2.08;;;;;;;;;;4935053;28;101460;-80
2023/08/21 05:04:36;;;;;;;6.50;2.13;;;;;;;;;;4950898;28;98490;-81
2023/08/21 05:07:03;;;;;;;6.07;2.13;;;;;;;;;;4949388;28;100521;-81
2023/08/21 05:09:29;;;;;;;;;;;;;;;;;;4946023;28;101674;-81
2023/08/21 05:11:56;;;;;;;5.95;2.00;;;;;;;;;;4943010;28;99321;-81
2023/08/21 05:14:23;;;;;;;6.50;2.00;;;;;;;;;;4935763;28;100948;-81
2023/08/21 05:16:50;;;;;;;6.85;2.10;;;;;;;;;;4944728;28;101241;-81
2023/08/21 05:19:18;;;;;;;7.70;1.90;;;;;;;;;;4952783;28;99327;-82
2023/08/21 05:21:45;;;;;;;5.90;1.90;;;;;;;;;;4945858;28;101166;-81
2023/08/21 05:24:11;;;;;;;8.68;1.70;;;;;;;;;;4939062;28;98710;-81
2023/08/21 05:26:44;;;;;;;5.13;1.90;;;;;;;;;;4959527;28;99016;-80
2023/08/21 05:29:10;;;;;;;4.68;1.70;;;;;;;;;;4963372;28;99771;-81
2023/08/21 05:31:37;;;;;;;5.65;1.60;;;;;;;;;;4956831;28;98927;-80
2023/08/21 05:34:04;;;;;;;4.80;1.67;;;;;;;;;;4955933;28;101214;-81
2023/08/21 05:36:30;;;;;;;6.20;1.83;;;;;;;;;;4952553;28;102772;-81
2023/08/21 05:38:57;;;;;;;4.53;1.45;;;;;;;;;;4939960;28;98992;-81
2023/08/21 05:41:28;;;;;;;7.60;2.15;;;;;;;;;;4944373;28;101106;-81
2023/08/21 05:43:54;;;;;;;5.15;1.65;;;;;;;;;;4953062;28;103219;-80
2023/08/21 05:46:23;;;;;;;5.43;1.80;;;;;;;;;;4949803;28;99811;-81
2023/08/21 05:48:49;;;;;;;8.65;1.92;;;;;;;;;;4935185;28;100380;-81
2023/08/21 05:51:16;;;;;;;5.22;1.92;;;;;;;;;;4949503;28;98546;-81
2023/08/21 05:53:42;;;;;;;8.18;1.70;;;;;;;;;;4949874;28;98705;-81
2023/08/21 05:56:09;;;;;;;6.65;1.80;;;;;;;;;;4947443;28;102069;-80
2023/08/21 05:58:35;;;;;;;6.70;2.00;;;;;;;;;;4949453;28;98604;-80
2023/08/21 06:01:05;;;;;;;9.35;1.80;;;;;;;;;;4937488;28;101202;-80
2023/08/21 06:03:33;;;;;;;7.03;1.70;;;;;;;;;;4936322;28;101338;-80
2023/08/21 06:06:08;;;;;;;4.88;1.80;;;;;;;;;;4944825;28;99175;-80
2023/08/21 06:08:35;;;;;;;6.10;1.80;;;;;;;;;;4933624;28;101276;-82
2023/08/21 06:11:01;;;;;;;8.20;2.28;;;;;;;;;;4953758;28;99052;-81
2023/08/21 06:13:28;;;;;;;5.63;1.75;;;;;;;;;;4944895;28;98877;-81
2023/08/21 06:15:55;;;;;;;6.68;1.90;;;;;;;;;;4946278;28;101417;-80
2023/08/21 06:18:23;;;;;;;7.13;1.92;;;;;;;;;;4949508;28;98285;-81
2023/08/21 06:20:53;;;;;;;5.97;1.70;;;;;;;;;;4946107;28;99677;-81
2023/08/21 06:23:20;;;;;;;6.18;1.90;;;;;;;;;;4936639;28;101789;-83
2023/08/21 06:25:48;;;;;;;5.80;1.90;;;;;;;;;;4933052;28;99412;-82
2023/08/21 06:28:16;;;;;;;6.03;1.75;;;;;;;;;;4950478;28;101638;-82
2023/08/21 06:30:42;;;;;;;;;;;;;;;;;;4948265;28;98612;-82
2023/08/21 06:33:10;;;;;;;6.10;1.73;;;;;;;;;;4950313;28;100233;-82
2023/08/21 06:35:37;;;;;;;7.57;1.88;;;;;;;;;;4944054;28;100122;-82
2023/08/21 06:38:04;;;;;;;6.43;1.70;;;;;;;;;;4918879;28;98690;-81
2023/08/21 06:40:31;;;;;;;6.63;1.85;;;;;;;;;;4943254;28;99839;-81
2023/08/21 06:42:58;;;;;;;9.55;1.90;;;;;;;;;;4938327;28;100142;-81
2023/08/21 06:45:30;;;;;;;8.63;2.00;;;;;;;;;;4949620;28;99031;-81
2023/08/21 06:47:58;;;;;;;5.25;1.65;;;;;;;;;;4952688;28;101417;-81
2023/08/21 06:50:26;;;;;;;6.55;1.90;;;;;;;;;;4953076;28;100186;-81
2023/08/21 06:52:52;;;;;;;5.93;1.75;;;;;;;;;;4950502;28;98664;-81
2023/08/21 06:55:19;;;;;;;9.70;2.03;;;;;;;;;;4951342;28;99016;-81
2023/08/21 06:57:45;;;;;;;6.28;1.70;;;;;;;;;;4955834;28;98792;-83
2023/08/21 07:00:18;;;;;;;6.53;1.80;;;;;;;;;;5094575;27;86112;-83
2023/08/21 07:02:45;;;;;;;5.88;1.92;;;;;;;;;;5082445;27;86390;-83
2023/08/21 07:05:11;;;;;;;8.07;1.90;;;;;;;;;;5083065;27;86740;-83
2023/08/21 07:07:38;;;;;;;5.38;1.77;;;;;;;;;;5081715;27;89685;-83
2023/08/21 07:10:05;;;;;;;8.05;1.80;;;;;;;;;;5077233;27;87054;-83
2023/08/21 07:12:31;;;;;;;7.20;1.98;;;;;;;;;;5083196;27;86369;-83
2023/08/21 07:14:58;;;;;;;9.10;1.95;;;;;;;;;;5082783;27;86204;-83
2023/08/21 07:17:24;;;;;;;7.65;2.08;;;;;;;;;;5083161;27;86111;-83
2023/08/21 07:19:52;;;;;;;11.45;1.70;;;;;;;;;;5084030;27;86415;-79
2023/08/21 07:22:20;;;;;;;8.43;1.80;;;;;;;;;;5080642;27;87232;-79
2023/08/21 07:24:47;;;;;;;5.50;1.52;;;;;;;;;;5081242;27;86742;-79
2023/08/21 07:27:14;;;;;;;7.10;1.75;;;;;;;;;;5082930;27;86787;-79
2023/08/21 07:29:40;;;;;;;6.40;1.70;;;;;;;;;;5067347;27;86919;-79
2023/08/21 07:32:07;;;;;;;6.88;1.75;;;;;;;;;;5079953;27;87415;-79
2023/08/21 07:34:34;;;;;;;7.28;1.77;;;;;;;;;;5069052;27;87235;-79
2023/08/21 07:37:00;;;;;;;7.28;1.90;;;;;;;;;;5064433;27;89512;-79
2023/08/21 07:39:27;;;;;;;6.47;1.80;;;;;;;;;;5075751;27;87798;-81
2023/08/21 07:41:53;;;;;;;8.70;1.85;;;;;;;;;;5072760;27;86849;-80
2023/08/21 07:44:20;;;;;;;7.85;1.73;;;;;;;;;;5061496;27;88994;-79
2023/08/21 07:46:46;;;;;;;9.20;1.70;;;;;;;;;;5067556;27;86861;-79
2023/08/21 07:49:13;;;;;;;7.60;1.90;;;;;;;;;;5062017;27;86768;-80
2023/08/21 07:51:39;;;;;;;7.60;1.83;;;;;;;;;;5066499;27;89467;-80
2023/08/21 07:54:06;;;;;;;7.25;1.90;;;;;;;;;;5061545;27;86975;-79
2023/08/21 07:56:33;;;;;;;9.30;2.67;;;;;;;;;;5067292;27;86983;-79
2023/08/21 07:58:59;;;;;;;8.77;1.83;;;;;;;;;;5055164;27;87803;-79
2023/08/21 08:01:26;;;;;;;7.80;1.80;;;;;;;;;;5063373;27;86785;-79
2023/08/21 08:03:53;;;;;;;6.80;1.60;;;;;;;;;;5063590;27;88539;-80
2023/08/21 08:06:19;;;;;;;6.50;1.80;;;;;;;;;;5061823;27;86382;-80
2023/08/21 08:08:46;;;;;;;7.35;1.88;;;;;;;;;;5060609;27;86982;-79
2023/08/21 08:11:12;;;;;;;7.55;1.50;;;;;;;;;;5049084;27;86603;-79
2023/08/21 08:13:39;;;;;;;7.47;1.80;;;;;;;;;;5051691;27;86839;-80
2023/08/21 08:16:05;;;;;;;8.13;1.83;;;;;;;;;;5062737;27;86524;-80
2023/08/21 08:18:32;;;;;;;5.63;1.73;;;;;;;;;;5062105;27;86680;-77
2023/08/21 08:20:58;;;;;;;9.25;1.65;;;;;;;;;;5067928;27;87252;-78
2023/08/21 08:23:25;;;;;;;6.93;1.50;;;;;;;;;;5062362;27;87336;-80
2023/08/21 08:25:52;;;;;;;6.90;1.67;;;;;;;;;;5069748;27;89621;-77
2023/08/21 08:28:19;;;;;;;6.32;1.50;;;;;;;;;;5066543;27;89246;-78
2023/08/21 08:30:46;;;;;;;7.65;1.60;;;;;;;;;;5051935;27;86987;-80
2023/08/21 08:33:12;;;;;;;6.68;1.70;;;;;;;;;;5045793;27;88713;-81
2023/08/21 08:35:40;;;;;;;6.13;1.80;;;;;;;;;;5058399;27;89169;-81
2023/08/21 08:38:07;;;;;;;5.53;1.55;;;;;;;;;;5063577;27;88363;-80
2023/08/21 08:40:36;;;;;;;6.30;1.58;;;;;;;;;;5048651;27;86937;-80
2023/08/21 08:43:05;;;;;;;8.07;1.73;;;;;;;;;;5047210;27;87185;-81
2023/08/21 08:45:32;;;;;;;5.85;1.63;;;;;;;;;;5047030;27;86717;-80
2023/08/21 08:48:00;;;;;;;6.15;1.50;;;;;;;;;;5054388;27;87481;-80
2023/08/21 08:50:30;;;;;;;10.95;1.95;;;;;;;;;;5065912;27;88761;-79
2023/08/21 08:52:58;;;;;;;5.72;1.75;;;;;;;;;;5048343;27;86673;-80
2023/08/21 08:55:40;;;;;;;8.40;1.80;;;;;;;;;;5058252;27;86973;-80
2023/08/21 08:58:07;;;;;;;5.57;1.50;;;;;;;;;;5046820;27;86865;-80
2023/08/21 09:00:36;;;;;;;5.68;1.65;;;;;;;;;;5055471;27;86936;-79
2023/08/21 09:03:03;;;;;;;;;;;;;;;;;;5047246;28;86349;-79
2023/08/21 09:05:30;;;;;;;9.80;1.73;;;;;;;;;;5049764;27;106375;-81
2023/08/21 09:08:02;;;;;;;7.35;1.40;;;;;;;;;;5045611;28;87342;-80
2023/08/21 09:10:28;;;;;;;6.45;1.80;;;;;;;;;;5050148;27;86185;-81
2023/08/21 09:12:58;;;;;;;5.40;1.52;;;;;;;;;;5045230;27;89826;-80
2023/08/21 09:15:27;;;;;;;5.82;1.33;;;;;;;;;;5048113;27;89144;-79
2023/08/21 09:18:09;;;;;;;6.25;1.55;;;;;;;;;;5033922;27;86083;-80
2023/08/21 09:20:36;;;;;;;6.95;1.60;;;;;;;;;;5056628;27;86794;-82
2023/08/21 09:23:04;;;;;;;7.90;1.60;;;;;;;;;;5027437;27;89620;-83
2023/08/21 09:25:34;;;;;;;5.20;1.30;;;;;;;;;;5048628;27;89211;-81
2023/08/21 09:28:04;;;;;;;6.18;1.55;;;;;;;;;;5044597;28;87200;-81
2023/08/21 09:30:42;;;;;;;5.38;1.40;;;;;;;;;;5046326;27;90030;-82
2023/08/21 09:33:09;;;;;;;6.80;1.38;;;;;;;;;;5065235;27;86589;-80
2023/08/21 09:35:36;;;;;;;4.75;1.35;;;;;;;;;;5066053;27;87090;-81
2023/08/21 09:38:03;;;;;;;6.18;1.60;;;;;;;;;;5061295;27;88959;-80
2023/08/21 09:40:29;;;;;;;5.68;1.58;;;;;;;;;;5064810;27;89877;-80
2023/08/21 09:42:56;;;;;;;6.90;1.50;;;;;;;;;;5065461;27;87336;-81
2023/08/21 09:45:23;;;;;;;;;;;;;;;;;;5067112;27;86468;-82
2023/08/21 09:47:53;;;;;;;5.80;1.80;;;;;;;;;;5066087;27;103318;-82
2023/08/21 09:50:21;;;;;;;5.68;1.52;;;;;;;;;;5054511;27;87997;-80
2023/08/21 09:52:48;;;;;;;5.95;1.80;;;;;;;;;;5069621;27;87405;-80
2023/08/21 09:55:15;;;;;;;6.63;1.50;;;;;;;;;;5066071;27;87320;-80
2023/08/21 09:57:41;;;;;;;6.38;1.65;;;;;;;;;;5066649;27;86180;-81
2023/08/21 10:00:21;;;;;;;3.92;1.40;;;;;;;;;;5047316;27;89795;-81
2023/08/21 10:02:47;;;;;;;;;;;;;;;;;;5051077;27;86830;-81
2023/08/21 10:05:16;;;;;;;6.28;1.70;;;;;;;;;;5048655;27;97919;-80
2023/08/21 10:07:43;;;;;;;6.07;1.50;;;;;;;;;;5066860;27;87338;-81
2023/08/21 10:10:12;;;;;;;7.45;1.70;;;;;;;;;;5058039;27;89788;-80
2023/08/21 10:12:38;;;;;;;6.60;1.80;;;;;;;;;;5067780;27;86645;-81
2023/08/21 10:15:07;;;;;;;5.88;1.42;;;;;;;;;;5068799;27;87092;-82
2023/08/21 10:17:33;;;;;;;5.85;1.50;;;;;;;;;;5065119;27;86805;-80
2023/08/21 10:20:03;;;;;;;5.78;1.90;;;;;;;;;;5065902;27;86841;-82
2023/08/21 10:22:42;;;;;;;5.35;1.50;;;;;;;;;;5043101;28;89877;-82
2023/08/21 10:25:15;;;;;;;7.07;1.80;;;;;;;;;;5055944;27;89296;-81
2023/08/21 10:27:42;;;;;;;4.60;1.30;;;;;;;;;;5061106;27;87005;-82
2023/08/21 10:30:19;;;;;;;4.55;1.50;;;;;;;;;;5053101;27;89463;-81
2023/08/21 10:32:49;;;;;;;6.05;1.50;;;;;;;;;;5062294;27;89485;-82
2023/08/21 10:35:18;;;;;;;4.95;1.40;;;;;;;;;;5046441;27;89327;-81
2023/08/21 10:38:17;;;;;;;4.50;1.48;;;;;;;;;;5066988;27;86298;-81
2023/08/21 10:41:03;;;;;;;5.40;1.20;;;;;;;;;;5018479;27;90010;-80
2023/08/21 10:43:39;;;;;;;3.97;1.30;;;;;;;;;;5050169;27;89690;-81
2023/08/21 10:46:07;;;;;;;5.13;1.30;;;;;;;;;;5065424;27;87371;-81
2023/08/21 10:48:33;;;;;;;4.40;1.17;;;;;;;;;;5063459;27;86997;-80
2023/08/21 10:51:01;;;;;;;5.05;1.30;;;;;;;;;;5055902;27;87529;-81
2023/08/21 10:53:28;;;;;;;4.30;1.10;;;;;;;;;;5053608;27;86531;-82
2023/08/21 10:55:55;;;;;;;4.00;1.10;;;;;;;;;;5042130;27;88801;-81
2023/08/21 10:58:22;;;;;;;5.00;1.20;;;;;;;;;;5050064;27;89815;-79
2023/08/21 11:00:58;;;;;;;5.18;1.10;;;;;;;;;;5054500;27;87268;-80
2023/08/21 11:03:24;;;;;;;5.82;1.33;;;;;;;;;;5048582;27;86945;-80
2023/08/21 11:06:01;;;;;;;5.90;1.30;;;;;;;;;;5049167;27;87590;-81
2023/08/21 11:08:28;;;;;;;4.72;1.10;;;;;;;;;;5055655;27;91519;-80
2023/08/21 11:10:55;;;;;;;5.22;1.00;;;;;;;;;;5051433;27;86886;-81
2023/08/21 11:13:24;;;;;;;6.32;1.45;;;;;;;;;;5037648;27;89655;-81
2023/08/21 11:16:01;;;;;;;3.53;1.13;;;;;;;;;;5050329;27;88621;-80
2023/08/21 11:18:32;;;;;;;4.70;1.20;;;;;;;;;;5043480;27;88351;-80
2023/08/21 11:21:05;;;;;;;5.25;1.10;;;;;;;;;;5048382;27;89143;-80
2023/08/21 11:23:32;;;;;;;5.25;1.13;;;;;;;;;;5043859;27;87639;-80
2023/08/21 11:25:59;;;;;;;5.22;1.13;;;;;;;;;;5045615;27;88437;-80
2023/08/21 11:28:40;;;;;;;3.38;1.13;;;;;;;;;;5041997;28;90982;-80
2023/08/21 11:31:06;;;;;;;3.50;0.93;;;;;;;;;;5045289;27;87698;-80
2023/08/21 11:33:33;;;;;;;3.03;0.95;;;;;;;;;;5042694;27;88063;-80
2023/08/21 11:36:00;;;;;;;2.75;0.90;;;;;;;;;;5047656;27;87311;-81
2023/08/21 11:38:26;;;;;;;;;;;;;;;;;;5044720;27;88174;-80
2023/08/21 11:40:53;;;;;;;4.50;1.10;;;;;;;;;;5044683;28;107364;-79
2023/08/21 11:43:19;;;;;;;2.58;0.90;;;;;;;;;;5046163;28;89518;-80
2023/08/21 11:45:46;;;;;;;2.50;0.82;;;;;;;;;;5045956;27;90266;-78
2023/08/21 11:48:24;;;;;;;3.80;1.05;;;;;;;;;;5061666;27;88269;-78
2023/08/21 11:50:50;;;;;;;2.70;0.90;;;;;;;;;;5066525;27;87636;-79
2023/08/21 11:53:29;;;;;;;4.07;1.10;;;;;;;;;;5066123;27;90948;-79
2023/08/21 11:55:56;;;;;;;3.72;1.00;;;;;;;;;;5067551;27;88914;-79
2023/08/21 11:58:26;;;;;;;3.97;1.20;;;;;;;;;;5040709;27;89861;-81
2023/08/21 12:00:53;;;;;;;3.38;1.00;;;;;;;;;;5058969;27;88349;-81
2023/08/21 12:03:19;;;;;;;3.97;1.00;;;;;;;;;;5066211;27;88161;-81
2023/08/21 12:05:46;;;;;;;;;;;;;;;;;;5054166;27;87706;-81
2023/08/21 12:08:12;;;;;;;4.85;1.20;;;;;;;;;;5057142;27;88995;-79
2023/08/21 12:10:39;;;;;;;4.53;1.20;;;;;;;;;;5051711;27;87604;-81
2023/08/21 12:13:07;;;;;;;3.83;1.10;;;;;;;;;;5066506;27;88801;-81
2023/08/21 12:15:33;;;;;;;4.32;1.15;;;;;;;;;;5059466;27;90800;-81
2023/08/21 12:18:00;;;;;;;4.10;1.13;;;;;;;;;;5065759;27;90181;-81
2023/08/21 12:20:27;;;;;;;4.38;1.30;;;;;;;;;;5067054;27;88803;-82
2023/08/21 12:22:54;;;;;;;4.15;1.10;;;;;;;;;;5046403;27;88815;-81
2023/08/21 12:25:20;;;;;;;3.33;1.10;;;;;;;;;;5065772;27;86962;-81
2023/08/21 12:27:47;;;;;;;3.22;1.10;;;;;;;;;;5059879;27;87729;-80
2023/08/21 12:30:26;;;;;;;3.30;1.00;;;;;;;;;;5045847;27;87819;-81
2023/08/21 12:32:53;;;;;;;5.18;1.20;;;;;;;;;;5044894;27;88639;-81
2023/08/21 12:35:19;;;;;;;;;;;;;;;;;;5062750;27;87700;-81
2023/08/21 12:37:46;;;;;;;3.38;1.27;;;;;;;;;;5047083;27;108103;-81
2023/08/21 12:40:12;;;;;;;1.85;0.80;;;;;;;;;;5047281;27;88138;-81
2023/08/21 12:42:39;;;;;;;4.43;1.13;;;;;;;;;;5048145;27;88330;-81
2023/08/21 12:45:06;;;;;;;3.92;1.10;;;;;;;;;;5034937;28;87736;-82
2023/08/21 12:47:33;;;;;;;3.10;1.02;;;;;;;;;;5063877;27;88089;-82
2023/08/21 12:49:59;;;;;;;3.30;1.05;;;;;;;;;;5052108;27;87206;-82
2023/08/21 12:52:26;;;;;;;2.28;1.00;;;;;;;;;;5044521;28;89660;-80
2023/08/21 12:54:52;;;;;;;3.53;1.00;;;;;;;;;;5053063;27;89925;-82
2023/08/21 12:57:19;;;;;;;3.80;1.00;;;;;;;;;;5046203;27;88409;-81
2023/08/21 12:59:46;;;;;;;3.45;1.00;;;;;;;;;;5050050;27;90691;-80
2023/08/21 13:02:12;;;;;;;3.63;1.10;;;;;;;;;;5046443;28;88370;-80
2023/08/21 13:04:39;;;;;;;3.55;1.00;;;;;;;;;;5045839;27;88705;-80
2023/08/21 13:07:05;;;;;;;2.92;1.10;;;;;;;;;;5045952;28;88350;-81
2023/08/21 13:09:33;;;;;;;1.88;1.10;;;;;;;;;;5045817;27;88357;-80
2023/08/21 13:12:00;;;;;;;3.42;1.10;;;;;;;;;;5049095;28;87965;-80
2023/08/21 13:14:26;;;;;;;3.58;1.10;;;;;;;;;;5055816;27;87639;-80
2023/08/21 13:16:56;;;;;;;5.57;1.40;;;;;;;;;;5064429;27;87648;-79
2023/08/21 13:19:23;;;;;;;3.97;1.20;;;;;;;;;;5055950;27;88388;-80
2023/08/21 13:21:50;;;;;;;3.95;1.20;;;;;;;;;;5043611;28;91119;-80
2023/08/21 13:24:16;;;;;;;5.05;1.35;;;;;;;;;;5043246;28;89408;-80
2023/08/21 13:26:43;;;;;;;4.43;1.40;;;;;;;;;;5057387;27;90812;-80
2023/08/21 13:29:10;;;;;;;5.03;1.60;;;;;;;;;;5049303;27;88196;-81
2023/08/21 13:31:36;;;;;;;5.05;1.55;;;;;;;;;;5048816;28;87616;-80
2023/08/21 13:34:03;;;;;;;4.30;1.60;;;;;;;;;;5034837;27;90728;-79
2023/08/21 13:36:30;;;;;;;2.88;1.42;;;;;;;;;;5063718;27;88005;-80
2023/08/21 13:38:56;;;;;;;2.72;1.27;;;;;;;;;;5050042;27;88558;-81
2023/08/21 13:41:23;;;;;;;4.18;1.63;;;;;;;;;;5046863;27;87665;-81
2023/08/21 13:43:49;;;;;;;2.85;1.20;;;;;;;;;;5049028;27;87655;-81
2023/08/21 13:46:16;;;;;;;;;;;;;;;;;;5050054;27;88559;-81
2023/08/21 13:48:43;;;;;;;3.70;1.63;;;;;;;;;;5064951;27;98738;-81
2023/08/21 13:51:10;;;;;;;3.33;1.50;;;;;;;;;;5048575;27;87684;-80
2023/08/21 13:53:36;;;;;;;3.00;1.30;;;;;;;;;;5048545;27;88127;-80
2023/08/21 13:56:03;;;;;;;5.03;1.50;;;;;;;;;;5043831;28;89541;-80
2023/08/21 13:58:29;;;;;;;3.20;1.30;;;;;;;;;;5043260;28;91313;-80
2023/08/21 14:00:57;;;;;;;;;;;;;;;;;;5058221;27;88192;-81
2023/08/21 14:03:24;;;;;;;4.28;1.50;;;;;;;;;;5063584;27;95483;-78
2023/08/21 14:05:51;;;;;;;4.90;1.50;;;;;;;;;;5045504;28;87544;-78
2023/08/21 14:08:17;;;;;;;4.53;1.35;;;;;;;;;;5044612;27;88664;-78
2023/08/21 14:10:44;;;;;;;;;;;;;;;;;;5044856;28;88608;-78
2023/08/21 14:13:11;;;;;;;3.85;1.58;;;;;;;;;;5044823;27;113881;-78
2023/08/21 14:15:38;;;;;;;4.63;1.60;;;;;;;;;;5046912;28;87741;-78
2023/08/21 14:18:04;;;;;;;4.63;1.60;;;;;;;;;;5044978;27;88381;-78
2023/08/21 14:20:31;;;;;;;4.60;1.73;;;;;;;;;;5045166;27;88554;-78
2023/08/21 14:22:58;;;;;;;4.57;1.40;;;;;;;;;;5045419;27;87802;-77
2023/08/21 14:25:24;;;;;;;3.67;1.35;;;;;;;;;;5047187;27;87866;-79
2023/08/21 14:27:51;;;;;;;4.35;1.40;;;;;;;;;;5045911;27;89796;-78
2023/08/21 14:30:18;;;;;;;4.35;1.30;;;;;;;;;;5061423;27;87688;-81
2023/08/21 14:32:44;;;;;;;5.18;1.45;;;;;;;;;;5060608;27;88560;-79
2023/08/21 14:35:11;;;;;;;5.70;1.60;;;;;;;;;;5064471;27;88670;-80
2023/08/21 14:37:39;;;;;;;6.53;1.80;;;;;;;;;;5049008;27;89240;-80
2023/08/21 14:40:07;;;;;;;7.20;1.80;;;;;;;;;;5045256;27;89616;-79
2023/08/21 14:42:34;;;;;;;7.35;1.73;;;;;;;;;;5043694;28;87730;-79
2023/08/21 14:45:01;;;;;;;6.25;1.80;;;;;;;;;;5043234;28;88006;-79
2023/08/21 14:47:28;;;;;;;5.57;1.60;;;;;;;;;;5025302;28;90547;-80